Climatologie pour Saint-Brevin les Pins
Jour • Résumé pour février 5, 2017 Système :  Métrique    Anglais   Mixte
« - 1 jour
+ 1 jour »
Jour Semaine Mois Année Personnalisé
  Maximum : Minimum : Moyenne :
Température sous abri : 10.8 °C 6.0 °C 7.9 °C
Point de rosée : 8.6 °C 3.6 °C 6.2 °C
Humidité : 98 % 75 % 89 %
Vitesse du vent : 46.7 km/h 1.6 km/h 11.8 km/h
Rafale : 54.7 km/h - -
Direction :- - West
Pression : 1018.2 hPa 991.1 hPa -
Précipitations : 7.6 mm    
Historical Graphs
 
 
Tableau de données pour février 5, 2017
Heure Tempé Pt rosée Pression Vent Vitesse Rafale Humidité Taux pluie (/hr) Soleil
00:00 8.6 °C 8.0 °C 998.2 hPa SW 4.8 km/h 16.1 km/h 96 % 1.5 mm 0 W/m2
00:10 8.7 °C 8.1 °C 997.9 hPa South 4.8 km/h 12.9 km/h 96 % 2.5 mm 0 W/m2
00:15 8.8 °C 8.2 °C 997.9 hPa South 4.8 km/h 12.9 km/h 96 % 2.5 mm 0 W/m2
00:20 8.8 °C 8.2 °C 997.9 hPa SSW 9.7 km/h 12.9 km/h 96 % 2.8 mm 0 W/m2
00:25 8.9 °C 8.3 °C 997.9 hPa South 8.0 km/h 17.7 km/h 96 % 2.8 mm 0 W/m2
00:30 8.9 °C 8.3 °C 997.5 hPa SSW 6.4 km/h 17.7 km/h 96 % 3.0 mm 0 W/m2
00:35 8.9 °C 8.3 °C 997.5 hPa SSW 8.0 km/h 19.3 km/h 96 % 3.0 mm 0 W/m2
00:40 8.9 °C 8.3 °C 997.5 hPa South 4.8 km/h 19.3 km/h 96 % 3.3 mm 0 W/m2
00:45 8.9 °C 8.3 °C 997.2 hPa SSW 9.7 km/h 19.3 km/h 96 % 3.3 mm 0 W/m2
00:50 8.9 °C 8.3 °C 997.2 hPa SSW 11.3 km/h 16.1 km/h 96 % 3.3 mm 0 W/m2
00:55 8.9 °C 8.3 °C 997.2 hPa SSE 4.8 km/h 16.1 km/h 96 % 2.5 mm 0 W/m2
01:00 8.8 °C 8.2 °C 996.8 hPa South 8.0 km/h 16.1 km/h 96 % 2.3 mm 0 W/m2
01:10 8.8 °C 8.3 °C 996.5 hPa South 6.4 km/h 12.9 km/h 97 % 1.5 mm 0 W/m2
01:15 8.7 °C 8.3 °C 996.5 hPa South 4.8 km/h 12.9 km/h 97 % 1.3 mm 0 W/m2
01:20 8.7 °C 8.2 °C 996.2 hPa South 3.2 km/h 11.3 km/h 97 % 0.8 mm 0 W/m2
01:25 8.7 °C 8.2 °C 996.2 hPa South 6.4 km/h 11.3 km/h 97 % 0.8 mm 0 W/m2
01:30 8.7 °C 8.2 °C 996.2 hPa South 1.6 km/h 9.7 km/h 97 % 0.5 mm 0 W/m2
01:35 8.7 °C 8.2 °C 995.8 hPa SSE 4.8 km/h 9.7 km/h 97 % 0.8 mm 0 W/m2
01:40 8.7 °C 8.2 °C 995.8 hPa SSE 6.4 km/h 11.3 km/h 97 % 0.8 mm 0 W/m2
01:45 8.7 °C 8.3 °C 995.5 hPa South 6.4 km/h 12.9 km/h 97 % 0.8 mm 0 W/m2
01:50 8.7 °C 8.3 °C 995.5 hPa SSE 6.4 km/h 12.9 km/h 97 % 0.5 mm 0 W/m2
01:55 8.7 °C 8.3 °C 995.5 hPa SSE 4.8 km/h 17.7 km/h 97 % 0.5 mm 0 W/m2
02:00 8.7 °C 8.3 °C 995.1 hPa South 4.8 km/h 17.7 km/h 97 % 0.5 mm 0 W/m2
02:05 8.7 °C 8.3 °C 995.1 hPa SSE 6.4 km/h 12.9 km/h 97 % 0.5 mm 0 W/m2
02:10 8.7 °C 8.3 °C 994.8 hPa SSE 9.7 km/h 12.9 km/h 97 % 0.5 mm 0 W/m2
02:15 8.7 °C 8.2 °C 994.8 hPa South 8.0 km/h 12.9 km/h 97 % 0.5 mm 0 W/m2
02:20 8.7 °C 8.2 °C 994.5 hPa SSE 3.2 km/h 11.3 km/h 97 % 0.8 mm 0 W/m2
02:25 8.6 °C 8.2 °C 994.1 hPa South 4.8 km/h 11.3 km/h 97 % 0.8 mm 0 W/m2
02:30 8.6 °C 8.1 °C 994.1 hPa SSE 4.8 km/h 9.7 km/h 97 % 0.8 mm 0 W/m2
02:35 8.6 °C 8.1 °C 994.1 hPa South 9.7 km/h 9.7 km/h 97 % 0.5 mm 0 W/m2
02:40 8.6 °C 8.1 °C 993.8 hPa SSE 9.7 km/h 11.3 km/h 97 % 0.8 mm 0 W/m2
02:45 8.5 °C 8.1 °C 993.8 hPa SSE 6.4 km/h 14.5 km/h 97 % 1.3 mm 0 W/m2
02:50 8.5 °C 8.1 °C 993.5 hPa SSE 8.0 km/h 14.5 km/h 97 % 1.3 mm 0 W/m2
02:55 8.5 °C 8.1 °C 993.5 hPa SSE 4.8 km/h 11.3 km/h 97 % 1.5 mm 0 W/m2
03:00 8.4 °C 8.0 °C 993.5 hPa SSE 3.2 km/h 9.7 km/h 97 % 1.5 mm 0 W/m2
03:05 8.4 °C 8.0 °C 993.1 hPa SE 6.4 km/h 8.0 km/h 97 % 1.5 mm 0 W/m2
03:10 8.4 °C 8.0 °C 993.1 hPa SSE 4.8 km/h 12.9 km/h 97 % 1.5 mm 0 W/m2
03:15 8.4 °C 8.0 °C 992.8 hPa ESE 6.4 km/h 12.9 km/h 97 % 1.8 mm 0 W/m2
03:20 8.4 °C 7.9 °C 992.8 hPa SSE 12.9 km/h 20.9 km/h 97 % 1.5 mm 0 W/m2
03:25 8.4 °C 7.9 °C 992.8 hPa SSE 14.5 km/h 22.5 km/h 97 % 1.5 mm 0 W/m2
03:30 8.4 °C 7.9 °C 992.4 hPa SSE 14.5 km/h 22.5 km/h 97 % 1.8 mm 0 W/m2
03:35 8.4 °C 7.9 °C 992.4 hPa SSE 6.4 km/h 16.1 km/h 97 % 1.8 mm 0 W/m2
03:40 8.4 °C 7.9 °C 992.4 hPa SSW 4.8 km/h 17.7 km/h 97 % 1.5 mm 0 W/m2
03:45 8.4 °C 8.0 °C 992.4 hPa SSE 9.7 km/h 17.7 km/h 97 % 1.3 mm 0 W/m2
03:50 8.4 °C 8.0 °C 992.1 hPa SSE 8.0 km/h 17.7 km/h 97 % 1.3 mm 0 W/m2
03:55 8.4 °C 8.0 °C 992.1 hPa SSE 3.2 km/h 17.7 km/h 97 % 0.8 mm 0 W/m2
04:00 8.5 °C 8.1 °C 991.8 hPa South 16.1 km/h 27.4 km/h 97 % 0.5 mm 0 W/m2
04:05 8.7 °C 8.4 °C 991.8 hPa SSE 11.3 km/h 27.4 km/h 98 % 0.5 mm 0 W/m2
04:10 8.7 °C 8.4 °C 991.4 hPa South 8.0 km/h 24.1 km/h 98 % 0.5 mm 0 W/m2
04:20 8.6 °C 8.2 °C 991.1 hPa South 4.8 km/h 19.3 km/h 97 % 0.5 mm 0 W/m2
04:25 8.7 °C 8.4 °C 991.1 hPa South 11.3 km/h 20.9 km/h 98 % 0.5 mm 0 W/m2
04:30 8.8 °C 8.5 °C 991.1 hPa SSW 11.3 km/h 22.5 km/h 98 % 0.3 mm 0 W/m2
04:35 8.9 °C 8.6 °C 991.1 hPa SSW 6.4 km/h 33.8 km/h 98 % 0.0 mm 0 W/m2
04:40 8.7 °C 8.3 °C 991.1 hPa SW 6.4 km/h 48.3 km/h 97 % 0.0 mm 0 W/m2
04:45 8.4 °C 8.0 °C 991.4 hPa WSW 17.7 km/h 49.9 km/h 97 % 0.0 mm 0 W/m2
04:50 8.3 °C 7.7 °C 991.1 hPa WNW 9.7 km/h 49.9 km/h 96 % 0.0 mm 0 W/m2
04:55 8.3 °C 7.7 °C 991.8 hPa WNW 9.7 km/h 46.7 km/h 96 % 0.0 mm 0 W/m2
05:00 8.1 °C 7.3 °C 992.1 hPa NW 22.5 km/h 53.1 km/h 95 % 0.0 mm 0 W/m2
05:05 7.9 °C 7.1 °C 992.1 hPa West 24.1 km/h 53.1 km/h 95 % 0.0 mm 0 W/m2
05:10 7.8 °C 6.9 °C 992.1 hPa West 22.5 km/h 51.5 km/h 94 % 0.0 mm 0 W/m2
05:15 7.7 °C 6.8 °C 992.1 hPa North 25.7 km/h 45.1 km/h 94 % 0.0 mm 0 W/m2
05:20 7.7 °C 6.6 °C 992.1 hPa WNW 11.3 km/h 41.8 km/h 93 % 0.0 mm 0 W/m2
05:25 7.7 °C 6.6 °C 992.4 hPa NW 25.7 km/h 40.2 km/h 93 % 0.0 mm 0 W/m2
05:30 7.6 °C 6.5 °C 992.4 hPa WSW 25.7 km/h 40.2 km/h 93 % 0.0 mm 0 W/m2
05:35 7.6 °C 6.6 °C 992.4 hPa WNW 16.1 km/h 40.2 km/h 93 % 0.0 mm 0 W/m2
05:40 7.7 °C 6.4 °C 992.4 hPa WNW 9.7 km/h 40.2 km/h 92 % 0.0 mm 0 W/m2
05:45 7.7 °C 6.4 °C 992.8 hPa WNW 20.9 km/h 38.6 km/h 92 % 0.0 mm 0 W/m2
05:50 7.6 °C 6.3 °C 992.8 hPa NW 14.5 km/h 32.2 km/h 92 % 0.0 mm 0 W/m2
05:55 7.6 °C 6.3 °C 992.8 hPa WNW 25.7 km/h 32.2 km/h 92 % 0.0 mm 0 W/m2
06:00 7.6 °C 6.3 °C 993.1 hPa WNW 14.5 km/h 29.0 km/h 92 % 0.0 mm 0 W/m2
06:05 7.7 °C 6.4 °C 993.1 hPa West 19.3 km/h 29.0 km/h 92 % 0.0 mm 0 W/m2
06:10 7.8 °C 6.6 °C 993.1 hPa NW 11.3 km/h 24.1 km/h 92 % 0.0 mm 0 W/m2
06:15 7.8 °C 6.6 °C 993.1 hPa NW 9.7 km/h 20.9 km/h 92 % 0.0 mm 0 W/m2
06:20 7.9 °C 6.7 °C 993.1 hPa WSW 4.8 km/h 20.9 km/h 92 % 0.0 mm 0 W/m2
06:25 7.9 °C 6.7 °C 993.1 hPa West 6.4 km/h 24.1 km/h 92 % 0.0 mm 0 W/m2
06:30 8.0 °C 6.8 °C 993.1 hPa West 12.9 km/h 25.7 km/h 92 % 0.0 mm 0 W/m2
06:35 8.1 °C 6.9 °C 993.5 hPa NW 6.4 km/h 25.7 km/h 92 % 0.3 mm 0 W/m2
06:40 7.8 °C 6.4 °C 993.1 hPa West 4.8 km/h 48.3 km/h 91 % 0.8 mm 0 W/m2
06:45 7.6 °C 6.3 °C 992.8 hPa West 8.0 km/h 48.3 km/h 92 % 0.8 mm 0 W/m2
06:50 7.7 °C 6.4 °C 992.8 hPa WNW 6.4 km/h 27.4 km/h 92 % 0.8 mm 0 W/m2
06:55 7.7 °C 6.5 °C 992.8 hPa WNW 6.4 km/h 27.4 km/h 92 % 0.8 mm 0 W/m2
07:00 7.7 °C 6.6 °C 992.8 hPa WNW 9.7 km/h 22.5 km/h 93 % 0.8 mm 0 W/m2
07:05 7.6 °C 6.6 °C 992.4 hPa WSW 22.5 km/h 22.5 km/h 93 % 0.8 mm 0 W/m2
07:10 7.6 °C 6.6 °C 992.4 hPa WNW 6.4 km/h 27.4 km/h 93 % 0.8 mm 0 W/m2
07:15 7.7 °C 6.4 °C 992.4 hPa WNW 9.7 km/h 27.4 km/h 92 % 0.8 mm 0 W/m2
07:20 7.8 °C 6.6 °C 992.8 hPa SW 25.7 km/h 30.6 km/h 92 % 0.8 mm 0 W/m2
07:25 8.0 °C 6.8 °C 992.8 hPa WSW 14.5 km/h 30.6 km/h 92 % 0.8 mm 0 W/m2
07:30 8.2 °C 6.8 °C 992.8 hPa WNW 12.9 km/h 25.7 km/h 91 % 0.8 mm 0 W/m2
07:35 8.3 °C 7.1 °C 993.1 hPa West 12.9 km/h 25.7 km/h 92 % 0.5 mm 0 W/m2
07:40 8.2 °C 6.8 °C 993.1 hPa West 27.4 km/h 30.6 km/h 91 % 0.3 mm 0 W/m2
07:45 8.1 °C 6.5 °C 993.1 hPa West 12.9 km/h 38.6 km/h 90 % 0.3 mm 0 W/m2
07:50 7.8 °C 6.1 °C 993.1 hPa West 6.4 km/h 38.6 km/h 89 % 0.3 mm 0 W/m2
07:55 7.8 °C 6.1 °C 993.5 hPa West 6.4 km/h 20.9 km/h 89 % 0.3 mm 0 W/m2
08:00 7.8 °C 5.9 °C 993.5 hPa WSW 14.5 km/h 27.4 km/h 88 % 0.3 mm 0 W/m2
08:05 7.9 °C 6.1 °C 993.5 hPa WSW 17.7 km/h 29.0 km/h 88 % 0.3 mm 0 W/m2
08:10 8.1 °C 6.2 °C 993.5 hPa WNW 9.7 km/h 29.0 km/h 88 % 0.3 mm 0 W/m2
08:15 8.1 °C 6.2 °C 993.5 hPa West 8.0 km/h 25.7 km/h 88 % 0.3 mm 0 W/m2
08:20 8.1 °C 6.4 °C 993.5 hPa WSW 4.8 km/h 24.1 km/h 89 % 0.3 mm 0 W/m2
08:25 8.1 °C 6.4 °C 993.5 hPa WSW 6.4 km/h 25.7 km/h 89 % 0.3 mm 0 W/m2
08:30 8.2 °C 6.5 °C 993.8 hPa WNW 6.4 km/h 25.7 km/h 89 % 0.3 mm 0 W/m2
08:35 8.3 °C 6.7 °C 993.8 hPa WSW 16.1 km/h 20.9 km/h 90 % 0.3 mm 0 W/m2
08:40 8.3 °C 6.7 °C 993.8 hPa SW 9.7 km/h 19.3 km/h 90 % 0.0 mm 7 W/m2
08:45 8.2 °C 6.7 °C 993.8 hPa SW 8.0 km/h 17.7 km/h 90 % 0.0 mm 9 W/m2
08:50 8.2 °C 6.6 °C 993.8 hPa WSW 8.0 km/h 17.7 km/h 90 % 0.0 mm 11 W/m2
08:55 8.1 °C 6.6 °C 993.8 hPa SSW 8.0 km/h 17.7 km/h 90 % 0.0 mm 12 W/m2
09:00 8.2 °C 6.6 °C 993.8 hPa WSW 4.8 km/h 17.7 km/h 90 % 0.0 mm 18 W/m2
09:05 8.1 °C 6.6 °C 994.1 hPa WSW 6.4 km/h 17.7 km/h 90 % 0.0 mm 21 W/m2
09:10 8.2 °C 6.8 °C 994.1 hPa SSW 4.8 km/h 16.1 km/h 91 % 0.0 mm 16 W/m2
09:15 8.2 °C 6.8 °C 994.1 hPa SW 9.7 km/h 22.5 km/h 91 % 0.0 mm 14 W/m2
09:20 8.3 °C 6.7 °C 994.1 hPa SSW 4.8 km/h 22.5 km/h 90 % 0.0 mm 16 W/m2
09:25 8.2 °C 6.7 °C 994.1 hPa SSW 4.8 km/h 20.9 km/h 90 % 0.0 mm 21 W/m2
09:30 8.2 °C 6.7 °C 994.1 hPa West 8.0 km/h 20.9 km/h 90 % 0.0 mm 26 W/m2
09:35 8.3 °C 6.6 °C 994.1 hPa West 14.5 km/h 17.7 km/h 89 % 0.0 mm 28 W/m2
09:40 8.4 °C 6.7 °C 994.1 hPa West 8.0 km/h 20.9 km/h 89 % 0.0 mm 26 W/m2
09:45 8.5 °C 6.8 °C 994.1 hPa SW 9.7 km/h 20.9 km/h 89 % 0.0 mm 44 W/m2
09:50 8.6 °C 6.8 °C 994.1 hPa SW 8.0 km/h 17.7 km/h 89 % 0.0 mm 53 W/m2
09:55 8.7 °C 7.0 °C 994.1 hPa SW 3.2 km/h 17.7 km/h 89 % 0.0 mm 53 W/m2
10:00 8.8 °C 7.1 °C 994.1 hPa SSW 6.4 km/h 19.3 km/h 89 % 0.0 mm 60 W/m2
10:05 8.8 °C 7.1 °C 994.1 hPa WSW 6.4 km/h 19.3 km/h 89 % 0.0 mm 56 W/m2
10:10 8.9 °C 7.2 °C 994.1 hPa SW 6.4 km/h 19.3 km/h 89 % 0.0 mm 153 W/m2
10:15 9.0 °C 7.1 °C 994.1 hPa West 11.3 km/h 19.3 km/h 88 % 0.0 mm 172 W/m2
10:20 9.2 °C 7.3 °C 994.1 hPa WSW 6.4 km/h 20.9 km/h 88 % 0.0 mm 207 W/m2
10:25 9.3 °C 7.4 °C 994.1 hPa SW 6.4 km/h 20.9 km/h 88 % 0.0 mm 232 W/m2
10:30 9.5 °C 7.4 °C 994.1 hPa SW 3.2 km/h 20.9 km/h 87 % 0.0 mm 269 W/m2
10:35 9.6 °C 7.5 °C 994.1 hPa SSW 4.8 km/h 20.9 km/h 87 % 0.0 mm 320 W/m2
10:40 10.0 °C 7.9 °C 994.1 hPa WSW 8.0 km/h 20.9 km/h 87 % 0.0 mm 441 W/m2
10:45 9.8 °C 7.4 °C 994.5 hPa WNW 11.3 km/h 32.2 km/h 85 % 0.0 mm 153 W/m2
10:50 9.1 °C 7.2 °C 994.5 hPa West 6.4 km/h 32.2 km/h 88 % 0.0 mm 144 W/m2
10:55 9.0 °C 7.6 °C 994.5 hPa WNW 3.2 km/h 24.1 km/h 91 % 0.3 mm 241 W/m2
11:00 9.1 °C 7.6 °C 994.1 hPa WSW 19.3 km/h 20.9 km/h 90 % 0.3 mm 186 W/m2
11:05 9.2 °C 7.5 °C 994.5 hPa West 6.4 km/h 20.9 km/h 89 % 0.3 mm 162 W/m2
11:10 9.2 °C 7.5 °C 994.5 hPa West 9.7 km/h 20.9 km/h 89 % 0.3 mm 207 W/m2
11:15 9.3 °C 7.1 °C 994.5 hPa WNW 6.4 km/h 17.7 km/h 86 % 0.3 mm 227 W/m2
11:20 9.6 °C 7.4 °C 994.5 hPa West 17.7 km/h 22.5 km/h 86 % 0.3 mm 446 W/m2
11:25 10.0 °C 7.8 °C 994.5 hPa WSW 9.7 km/h 24.1 km/h 86 % 0.3 mm 318 W/m2
11:30 10.3 °C 8.0 °C 994.8 hPa West 14.5 km/h 24.1 km/h 86 % 0.3 mm 292 W/m2
11:35 10.4 °C 8.1 °C 994.8 hPa SW 8.0 km/h 20.9 km/h 86 % 0.3 mm 462 W/m2
11:40 10.4 °C 8.0 °C 994.8 hPa WNW 9.7 km/h 20.9 km/h 85 % 0.3 mm 207 W/m2
11:45 10.2 °C 7.9 °C 994.8 hPa West 6.4 km/h 20.9 km/h 86 % 0.3 mm 211 W/m2
11:50 9.8 °C 7.5 °C 994.8 hPa West 11.3 km/h 20.9 km/h 86 % 0.3 mm 160 W/m2
11:55 10.1 °C 8.2 °C 994.8 hPa West 9.7 km/h 20.9 km/h 88 % 0.0 mm 520 W/m2
12:00 10.2 °C 7.8 °C 995.1 hPa WSW 17.7 km/h 20.9 km/h 85 % 0.0 mm 269 W/m2
12:05 10.6 °C 8.1 °C 995.1 hPa West 14.5 km/h 20.9 km/h 85 % 0.0 mm 257 W/m2
12:10 10.5 °C 8.3 °C 995.1 hPa West 6.4 km/h 20.9 km/h 86 % 0.0 mm 396 W/m2
12:15 10.8 °C 8.4 °C 995.1 hPa West 6.4 km/h 20.9 km/h 85 % 0.0 mm 373 W/m2
12:20 10.4 °C 8.2 °C 995.1 hPa West 4.8 km/h 19.3 km/h 86 % 0.0 mm 202 W/m2
12:25 10.3 °C 8.2 °C 995.5 hPa WNW 8.0 km/h 19.3 km/h 87 % 0.0 mm 195 W/m2
12:30 10.0 °C 8.1 °C 995.5 hPa WNW 11.3 km/h 24.1 km/h 88 % 0.0 mm 202 W/m2
12:35 9.7 °C 8.2 °C 995.5 hPa NNW 14.5 km/h 24.1 km/h 90 % 0.0 mm 176 W/m2
12:40 9.6 °C 8.0 °C 995.8 hPa NW 19.3 km/h 30.6 km/h 90 % 0.0 mm 178 W/m2
12:45 9.1 °C 7.4 °C 996.2 hPa NNW 19.3 km/h 40.2 km/h 89 % 0.0 mm 148 W/m2
12:55 8.3 °C 6.6 °C 996.5 hPa NNW 19.3 km/h 38.6 km/h 89 % 0.0 mm 146 W/m2
13:00 8.2 °C 6.3 °C 996.8 hPa NNW 24.1 km/h 40.2 km/h 88 % 0.0 mm 91 W/m2
13:05 7.9 °C 6.2 °C 997.2 hPa NNW 19.3 km/h 40.2 km/h 89 % 0.0 mm 91 W/m2
13:10 7.6 °C 5.7 °C 997.5 hPa WNW 19.3 km/h 38.6 km/h 88 % 0.0 mm 139 W/m2
13:15 7.4 °C 5.4 °C 997.9 hPa NW 22.5 km/h 37.0 km/h 87 % 0.0 mm 155 W/m2
13:20 7.0 °C 5.1 °C 997.9 hPa NNW 20.9 km/h 37.0 km/h 88 % 0.0 mm 98 W/m2
13:30 6.2 °C 4.7 °C 998.2 hPa NW 27.4 km/h 37.0 km/h 90 % 0.3 mm 70 W/m2
13:35 6.1 °C 4.8 °C 998.5 hPa NNW 8.0 km/h 35.4 km/h 91 % 0.3 mm 102 W/m2
13:40 6.1 °C 4.9 °C 998.5 hPa NW 16.1 km/h 38.6 km/h 92 % 0.3 mm 134 W/m2
13:45 6.2 °C 5.0 °C 998.9 hPa NW 19.3 km/h 41.8 km/h 92 % 0.3 mm 151 W/m2
13:50 6.2 °C 5.0 °C 998.9 hPa North 17.7 km/h 43.4 km/h 92 % 0.5 mm 95 W/m2
13:55 6.1 °C 5.1 °C 998.9 hPa NW 8.0 km/h 43.4 km/h 93 % 0.5 mm 70 W/m2
14:00 6.1 °C 5.0 °C 999.2 hPa NW 19.3 km/h 33.8 km/h 93 % 0.8 mm 58 W/m2
14:05 6.1 °C 5.0 °C 999.2 hPa NNW 17.7 km/h 33.8 km/h 93 % 0.8 mm 54 W/m2
14:10 6.1 °C 5.2 °C 999.5 hPa North 16.1 km/h 38.6 km/h 94 % 0.8 mm 47 W/m2
14:15 6.1 °C 5.2 °C 999.9 hPa NW 22.5 km/h 53.1 km/h 94 % 0.8 mm 44 W/m2
14:20 6.1 °C 5.2 °C 999.9 hPa NNW 22.5 km/h 53.1 km/h 94 % 1.0 mm 37 W/m2
14:25 6.0 °C 5.1 °C 999.9 hPa NW 9.7 km/h 48.3 km/h 94 % 1.0 mm 35 W/m2
14:30 6.1 °C 5.2 °C 1000.2 hPa NW 8.0 km/h 48.3 km/h 94 % 1.0 mm 47 W/m2
14:35 6.1 °C 5.0 °C 999.9 hPa NW 46.7 km/h 54.7 km/h 93 % 1.0 mm 51 W/m2
14:40 6.1 °C 5.0 °C 1000.2 hPa NW 14.5 km/h 54.7 km/h 93 % 1.0 mm 49 W/m2
14:45 6.1 °C 5.1 °C 1000.2 hPa NW 22.5 km/h 46.7 km/h 93 % 0.8 mm 53 W/m2
14:50 6.2 °C 5.1 °C 1000.9 hPa NNW 20.9 km/h 43.4 km/h 93 % 0.8 mm 51 W/m2
14:55 6.2 °C 5.2 °C 1001.2 hPa NNW 12.9 km/h 40.2 km/h 93 % 0.5 mm 60 W/m2
15:00 6.3 °C 5.2 °C 1001.6 hPa NNW 16.1 km/h 37.0 km/h 93 % 0.5 mm 32 W/m2
15:05 6.3 °C 5.3 °C 1001.6 hPa NNW 16.1 km/h 35.4 km/h 93 % 0.5 mm 93 W/m2
15:10 6.5 °C 5.4 °C 1001.6 hPa NNW 16.1 km/h 35.4 km/h 93 % 0.5 mm 70 W/m2
15:15 6.6 °C 5.7 °C 1001.6 hPa NNW 12.9 km/h 33.8 km/h 94 % 0.5 mm 105 W/m2
15:20 6.7 °C 5.7 °C 1001.9 hPa NNW 11.3 km/h 32.2 km/h 93 % 0.3 mm 127 W/m2
15:25 6.9 °C 6.0 °C 1001.9 hPa North 6.4 km/h 30.6 km/h 94 % 0.3 mm 186 W/m2
15:30 7.2 °C 6.3 °C 1002.3 hPa NW 14.5 km/h 20.9 km/h 94 % 0.0 mm 178 W/m2
15:40 7.7 °C 6.5 °C 1002.3 hPa NNW 12.9 km/h 32.2 km/h 92 % 0.0 mm 163 W/m2
15:45 7.9 °C 6.6 °C 1002.6 hPa NNW 8.0 km/h 32.2 km/h 91 % 0.0 mm 128 W/m2
15:50 8.1 °C 6.5 °C 1002.6 hPa NNW 9.7 km/h 30.6 km/h 90 % 0.0 mm 114 W/m2
15:55 8.2 °C 6.5 °C 1002.9 hPa NW 12.9 km/h 37.0 km/h 89 % 0.0 mm 91 W/m2
16:00 8.3 °C 6.5 °C 1003.3 hPa WNW 20.9 km/h 37.0 km/h 88 % 0.0 mm 76 W/m2
16:05 8.3 °C 6.3 °C 1003.6 hPa NW 19.3 km/h 35.4 km/h 87 % 0.0 mm 63 W/m2
16:10 8.4 °C 6.2 °C 1003.6 hPa NNW 14.5 km/h 35.4 km/h 86 % 0.0 mm 69 W/m2
16:15 8.4 °C 6.2 °C 1003.9 hPa WNW 20.9 km/h 38.6 km/h 86 % 0.0 mm 72 W/m2
16:20 8.5 °C 6.1 °C 1004.3 hPa North 17.7 km/h 38.6 km/h 85 % 0.0 mm 72 W/m2
16:25 8.6 °C 6.2 °C 1004.6 hPa NNW 20.9 km/h 38.6 km/h 85 % 0.0 mm 77 W/m2
16:30 8.6 °C 6.2 °C 1004.6 hPa North 30.6 km/h 38.6 km/h 85 % 0.0 mm 81 W/m2
16:35 8.7 °C 6.1 °C 1004.6 hPa North 11.3 km/h 38.6 km/h 84 % 0.0 mm 95 W/m2
16:40 8.8 °C 6.2 °C 1005.0 hPa North 8.0 km/h 38.6 km/h 84 % 0.0 mm 113 W/m2
16:45 9.1 °C 6.4 °C 1005.3 hPa NW 9.7 km/h 32.2 km/h 83 % 0.0 mm 114 W/m2
16:50 9.3 °C 6.4 °C 1005.6 hPa NNW 14.5 km/h 35.4 km/h 82 % 0.0 mm 120 W/m2
16:55 9.4 °C 6.3 °C 1005.6 hPa North 33.8 km/h 35.4 km/h 81 % 0.0 mm 104 W/m2
17:00 9.4 °C 6.2 °C 1006.0 hPa NNW 32.2 km/h 45.1 km/h 80 % 0.0 mm 104 W/m2
17:05 9.4 °C 6.2 °C 1006.0 hPa NW 25.7 km/h 51.5 km/h 80 % 0.0 mm 178 W/m2
17:10 9.5 °C 5.7 °C 1006.3 hPa NNW 30.6 km/h 51.5 km/h 77 % 0.0 mm 165 W/m2
17:15 9.5 °C 5.7 °C 1006.3 hPa North 30.6 km/h 51.5 km/h 77 % 0.0 mm 127 W/m2
17:20 9.6 °C 5.3 °C 1006.7 hPa NNW 9.7 km/h 40.2 km/h 75 % 0.0 mm 120 W/m2
17:25 9.5 °C 5.7 °C 1007.0 hPa NW 9.7 km/h 40.2 km/h 77 % 0.0 mm 100 W/m2
17:30 9.3 °C 5.8 °C 1007.0 hPa NW 6.4 km/h 38.6 km/h 79 % 0.0 mm 84 W/m2
17:35 9.2 °C 5.8 °C 1007.3 hPa NNW 11.3 km/h 33.8 km/h 79 % 0.0 mm 51 W/m2
17:40 9.1 °C 5.4 °C 1007.7 hPa NNW 27.4 km/h 33.8 km/h 78 % 0.0 mm 26 W/m2
17:50 8.5 °C 4.7 °C 1008.0 hPa NW 14.5 km/h 37.0 km/h 77 % 0.0 mm 18 W/m2
17:55 8.3 °C 4.5 °C 1008.0 hPa NW 19.3 km/h 37.0 km/h 77 % 0.0 mm 14 W/m2
18:00 8.2 °C 4.4 °C 1008.4 hPa North 19.3 km/h 38.6 km/h 77 % 0.0 mm 11 W/m2
18:05 8.1 °C 4.3 °C 1008.7 hPa NNW 8.0 km/h 38.6 km/h 77 % 0.0 mm 7 W/m2
18:10 7.9 °C 4.3 °C 1008.7 hPa NNW 17.7 km/h 32.2 km/h 78 % 0.0 mm 5 W/m2
18:15 7.9 °C 4.3 °C 1009.0 hPa NW 19.3 km/h 37.0 km/h 78 % 0.0 mm 0 W/m2
18:20 7.9 °C 4.3 °C 1009.4 hPa NW 17.7 km/h 37.0 km/h 78 % 0.0 mm 0 W/m2
18:25 7.7 °C 4.3 °C 1009.4 hPa NW 20.9 km/h 32.2 km/h 79 % 0.0 mm 0 W/m2
18:30 7.5 °C 4.1 °C 1009.7 hPa NW 19.3 km/h 27.4 km/h 79 % 0.0 mm 0 W/m2
18:35 7.6 °C 4.0 °C 1010.0 hPa NW 12.9 km/h 32.2 km/h 78 % 0.0 mm 0 W/m2
18:40 7.4 °C 3.8 °C 1010.0 hPa North 14.5 km/h 32.2 km/h 78 % 0.0 mm 0 W/m2
18:45 7.3 °C 3.7 °C 1010.4 hPa NW 16.1 km/h 37.0 km/h 78 % 0.0 mm 0 W/m2
18:50 7.2 °C 3.6 °C 1010.7 hPa NW 8.0 km/h 37.0 km/h 78 % 0.0 mm 0 W/m2
18:55 7.2 °C 3.8 °C 1011.1 hPa NNW 24.1 km/h 45.1 km/h 79 % 0.0 mm 0 W/m2
19:00 7.3 °C 3.7 °C 1011.1 hPa North 9.7 km/h 45.1 km/h 78 % 0.0 mm 0 W/m2
19:05 7.2 °C 3.8 °C 1011.4 hPa NNW 16.1 km/h 37.0 km/h 79 % 0.0 mm 0 W/m2
19:10 7.1 °C 3.8 °C 1011.7 hPa NNW 8.0 km/h 35.4 km/h 80 % 0.0 mm 0 W/m2
19:15 7.2 °C 3.9 °C 1011.7 hPa NNW 11.3 km/h 37.0 km/h 80 % 0.0 mm 0 W/m2
19:25 7.1 °C 3.8 °C 1012.1 hPa WNW 16.1 km/h 35.4 km/h 80 % 0.0 mm 0 W/m2
19:30 6.9 °C 3.7 °C 1012.1 hPa NNW 9.7 km/h 24.1 km/h 80 % 0.0 mm 0 W/m2
19:35 6.8 °C 3.8 °C 1012.4 hPa NNW 16.1 km/h 24.1 km/h 81 % 0.0 mm 0 W/m2
19:40 6.8 °C 3.7 °C 1012.4 hPa West 11.3 km/h 24.1 km/h 81 % 0.0 mm 0 W/m2
19:45 6.8 °C 3.7 °C 1012.8 hPa NW 20.9 km/h 27.4 km/h 81 % 0.0 mm 0 W/m2
19:50 6.8 °C 3.9 °C 1012.8 hPa NNW 6.4 km/h 27.4 km/h 82 % 0.0 mm 0 W/m2
19:55 6.8 °C 4.0 °C 1013.1 hPa West 16.1 km/h 25.7 km/h 82 % 0.0 mm 0 W/m2
20:00 6.8 °C 4.0 °C 1013.1 hPa NNW 9.7 km/h 25.7 km/h 82 % 0.0 mm 0 W/m2
20:05 6.8 °C 4.0 °C 1013.4 hPa NNW 6.4 km/h 24.1 km/h 82 % 0.0 mm 0 W/m2
20:10 6.8 °C 3.9 °C 1013.4 hPa NW 9.7 km/h 24.1 km/h 82 % 0.0 mm 0 W/m2
20:15 6.8 °C 4.1 °C 1013.8 hPa WNW 11.3 km/h 20.9 km/h 83 % 0.0 mm 0 W/m2
20:20 6.7 °C 4.0 °C 1013.8 hPa NW 11.3 km/h 25.7 km/h 83 % 0.0 mm 0 W/m2
20:25 6.6 °C 3.9 °C 1013.8 hPa WNW 11.3 km/h 25.7 km/h 83 % 0.0 mm 0 W/m2
20:30 6.6 °C 3.9 °C 1014.1 hPa WNW 4.8 km/h 19.3 km/h 83 % 0.0 mm 0 W/m2
20:35 6.6 °C 4.0 °C 1014.1 hPa NW 4.8 km/h 19.3 km/h 84 % 0.0 mm 0 W/m2
20:40 6.7 °C 4.3 °C 1014.4 hPa WNW 6.4 km/h 22.5 km/h 85 % 0.0 mm 0 W/m2
20:45 6.7 °C 4.4 °C 1014.4 hPa WNW 11.3 km/h 22.5 km/h 85 % 0.0 mm 0 W/m2
20:50 6.8 °C 4.4 °C 1014.4 hPa WNW 9.7 km/h 22.5 km/h 85 % 0.0 mm 0 W/m2
20:55 6.8 °C 4.5 °C 1014.8 hPa NW 12.9 km/h 19.3 km/h 85 % 0.0 mm 0 W/m2
21:00 6.8 °C 4.7 °C 1014.8 hPa NNW 9.7 km/h 20.9 km/h 86 % 0.0 mm 0 W/m2
21:05 6.8 °C 4.5 °C 1014.8 hPa NW 11.3 km/h 20.9 km/h 85 % 0.0 mm 0 W/m2
21:10 6.7 °C 4.5 °C 1014.8 hPa WNW 8.0 km/h 20.9 km/h 86 % 0.0 mm 0 W/m2
21:15 6.7 °C 4.5 °C 1015.1 hPa North 11.3 km/h 27.4 km/h 86 % 0.0 mm 0 W/m2
21:20 6.7 °C 4.5 °C 1015.5 hPa NW 8.0 km/h 27.4 km/h 86 % 0.0 mm 0 W/m2
21:25 6.6 °C 4.3 °C 1015.5 hPa NNW 11.3 km/h 24.1 km/h 85 % 0.0 mm 0 W/m2
21:30 6.6 °C 4.4 °C 1015.5 hPa NNW 9.7 km/h 24.1 km/h 86 % 0.0 mm 0 W/m2
21:35 6.6 °C 4.4 °C 1015.8 hPa NNW 14.5 km/h 24.1 km/h 86 % 0.0 mm 0 W/m2
21:40 6.6 °C 4.4 °C 1015.8 hPa NW 11.3 km/h 24.1 km/h 86 % 0.0 mm 0 W/m2
21:45 6.6 °C 4.4 °C 1015.8 hPa NW 11.3 km/h 22.5 km/h 86 % 0.0 mm 0 W/m2
21:50 6.5 °C 4.3 °C 1015.8 hPa NNW 17.7 km/h 20.9 km/h 86 % 0.0 mm 0 W/m2
21:55 6.4 °C 4.3 °C 1016.1 hPa WNW 12.9 km/h 20.9 km/h 86 % 0.0 mm 0 W/m2
22:00 6.4 °C 4.3 °C 1016.1 hPa NW 8.0 km/h 22.5 km/h 86 % 0.0 mm 0 W/m2
22:05 6.4 °C 4.2 °C 1016.5 hPa WNW 11.3 km/h 22.5 km/h 86 % 0.0 mm 0 W/m2
22:10 6.3 °C 4.2 °C 1016.5 hPa NW 6.4 km/h 22.5 km/h 86 % 0.0 mm 0 W/m2
22:15 6.3 °C 4.1 °C 1016.8 hPa North 11.3 km/h 17.7 km/h 86 % 0.0 mm 0 W/m2
22:20 6.2 °C 4.1 °C 1016.8 hPa NW 11.3 km/h 22.5 km/h 86 % 0.0 mm 0 W/m2
22:25 6.2 °C 4.1 °C 1016.5 hPa NW 16.1 km/h 22.5 km/h 86 % 0.0 mm 0 W/m2
22:30 6.3 °C 4.1 °C 1016.8 hPa NW 11.3 km/h 19.3 km/h 86 % 0.0 mm 0 W/m2
22:35 6.2 °C 4.2 °C 1016.8 hPa WNW 6.4 km/h 16.1 km/h 87 % 0.0 mm 0 W/m2
22:40 6.2 °C 4.2 °C 1016.8 hPa NW 9.7 km/h 16.1 km/h 87 % 0.0 mm 0 W/m2
22:45 6.2 °C 4.2 °C 1016.8 hPa NW 4.8 km/h 12.9 km/h 87 % 0.0 mm 0 W/m2
22:50 6.1 °C 4.1 °C 1016.8 hPa West 4.8 km/h 12.9 km/h 87 % 0.0 mm 0 W/m2
22:55 6.2 °C 4.3 °C 1017.2 hPa WNW 6.4 km/h 16.1 km/h 88 % 0.0 mm 0 W/m2
23:00 6.2 °C 4.4 °C 1017.2 hPa WNW 6.4 km/h 16.1 km/h 88 % 0.0 mm 0 W/m2
23:05 6.2 °C 4.4 °C 1017.5 hPa NW 8.0 km/h 16.1 km/h 88 % 0.0 mm 0 W/m2
23:10 6.2 °C 4.4 °C 1017.5 hPa WNW 4.8 km/h 17.7 km/h 88 % 0.0 mm 0 W/m2
23:15 6.2 °C 4.4 °C 1017.5 hPa WNW 3.2 km/h 17.7 km/h 88 % 0.0 mm 0 W/m2
23:20 6.2 °C 4.4 °C 1017.5 hPa NW 6.4 km/h 17.7 km/h 88 % 0.0 mm 0 W/m2
23:25 6.2 °C 4.5 °C 1017.5 hPa WNW 8.0 km/h 17.7 km/h 89 % 0.0 mm 0 W/m2
23:30 6.2 °C 4.5 °C 1017.8 hPa NNW 11.3 km/h 19.3 km/h 89 % 0.0 mm 0 W/m2
23:35 6.2 °C 4.5 °C 1017.8 hPa WNW 11.3 km/h 19.3 km/h 89 % 0.0 mm 0 W/m2
23:40 6.3 °C 4.4 °C 1018.2 hPa NW 9.7 km/h 29.0 km/h 88 % 0.0 mm 0 W/m2
23:45 6.2 °C 4.4 °C 1018.2 hPa NW 16.1 km/h 29.0 km/h 88 % 0.0 mm 0 W/m2
23:50 6.3 °C 4.4 °C 1018.2 hPa WNW 8.0 km/h 24.1 km/h 88 % 0.0 mm 0 W/m2
23:55 6.2 °C 4.4 °C 1018.2 hPa NW 16.1 km/h 24.1 km/h 88 % 0.0 mm 0 W/m2
Avec l'autorisation de Weather Underground - 1.75 mb